Pagrindinis puslapis
METAR-TAF:

METAR-TAF

Oro uostai :

Bonairė, Nyderlandų Antilai

platuma: 12-09N, ilguma: 068-17W, Aukštis: 6 m

Dabartinis oras

Ataskaita buvo paskelbta 36 minutes, ne 22:55 UTC
Vėjas 4 kt iš Rytų
Temperatūra 28°C
Drėgmė 79%
Slėgis 1009 hPa
Matomumas 10 km arba daugiau
Mažai debesys ne aukštis 1700 ft

METAR: TNCB 222255Z 08004KT 9999 FEW017 28/24 Q1009

Laikas: 19:31 (23:31 UTC)

Prognozė

Ataskaita buvo paskelbta 6 valandos ir 44 minutes, ne 16:47 UTC
Prognozė galioja nuo 22 metu 18 UTC su 23 metu 24 UTC
Vėjas 5 kt iš Rytų
Matomumas 10 km arba daugiau
Mažai debesys ne aukštis 2000 ft
Tikimybė 30% :
Laikinai
nuo 22 metu 18 UTC su 23 metu 18 UTC
Matomumas: 6000 m
Išsisklaidę debesys ne aukštis 1800 ft, Liūtiniai kamuoliniai debesys.
Su prošvaistėmis ne aukštis 2000 ft
lietus

TAF: TNCB 221647Z 2218/2324 08005KT 9999 FEW020 PROB30 TEMPO 2218/2318 6000 SHRA SCT018CB BKN020

Orai ataskaitas ir orų prognozės (METAR, TAF).

turimą stotys yra geltonos ir raudonos taškus žemėlapyje.

Perkelti pele per norėdami pamatyti stoties vardą.

Tada spustelėkite, norėdami matyti oro stebėjimo ir prognozės.

Norėdami pakeisti žemėlapį: spustelėkite ant žalios mygtukų su juodo kryžiaus žemyn,; žalią mygtuką su brūkšneliu, jei norite nutolinti; arba žalių rodyklių gretimoms žemėlapius.


METAR-TAF: